Time;durP1;ratioP1;P1;durP2;ratioP2;P2;SDS_P1;SDS_P2;PMS_P1;PMS_P2;Temp;Humidity;BMP_temperature;BMP_pressure;BME280_temperature;BME280_humidity;BME280_pressure;Samples;Min_cycle;Max_cycle;Signal;HPM_P1;HPM_P2
2021/08/12 00:00:17;;;;;;;5.25;3.40;;;;;;;;;;362611;146;866573;-56
2021/08/12 00:01:18;;;;;;;5.26;3.23;;;;;;;;;;354761;143;857734;-56
2021/08/12 00:02:20;;;;;;;8.19;3.54;;;;;;;;;;348828;151;859287;-56
2021/08/12 00:03:22;;;;;;;5.51;3.51;;;;;;;;;;351853;151;865391;-56
2021/08/12 00:04:23;;;;;;;5.74;3.22;;;;;;;;;;349292;150;857136;-56
2021/08/12 00:05:25;;;;;;;8.04;3.29;;;;;;;;;;361187;148;857409;-57
2021/08/12 00:06:27;;;;;;;6.13;3.63;;;;;;;;;;357501;148;857344;-56
2021/08/12 00:07:28;;;;;;;4.56;3.04;;;;;;;;;;355143;148;857360;-56
2021/08/12 00:08:30;;;;;;;6.42;2.99;;;;;;;;;;360879;148;857213;-56
2021/08/12 00:09:31;;;;;;;6.10;3.43;;;;;;;;;;358826;148;857258;-56
2021/08/12 00:10:35;;;;;;;6.29;3.51;;;;;;;;;;356112;148;857381;-56
2021/08/12 00:11:37;;;;;;;5.26;3.57;;;;;;;;;;359854;148;858617;-56
2021/08/12 00:12:38;;;;;;;6.14;3.89;;;;;;;;;;354672;148;857255;-56
2021/08/12 00:13:40;;;;;;;6.32;2.95;;;;;;;;;;357633;148;866432;-56
2021/08/12 00:14:41;;;;;;;4.55;3.57;;;;;;;;;;357474;148;858762;-56
2021/08/12 00:15:43;;;;;;;6.15;3.66;;;;;;;;;;358064;148;860030;-56
2021/08/12 00:16:46;;;;;;;7.11;3.79;;;;;;;;;;356370;148;859631;-56
2021/08/12 00:17:48;;;;;;;5.34;3.32;;;;;;;;;;357271;148;858801;-56
2021/08/12 00:18:55;;;;;;;11.64;3.57;;;;;;;;;;357502;148;857289;-56
2021/08/12 00:19:53;;;;;;;6.23;3.67;;;;;;;;;;359711;148;857298;-56
2021/08/12 00:20:55;;;;;;;4.74;3.33;;;;;;;;;;358033;148;858800;-56
2021/08/12 00:21:57;;;;;;;7.19;3.23;;;;;;;;;;357069;148;857385;-56
2021/08/12 00:22:58;;;;;;;6.87;3.27;;;;;;;;;;359583;148;857436;-56
2021/08/12 00:24:00;;;;;;;6.24;3.92;;;;;;;;;;358844;148;857484;-56
2021/08/12 00:25:01;;;;;;;6.66;3.41;;;;;;;;;;359005;148;857303;-56
2021/08/12 00:26:04;;;;;;;4.99;3.36;;;;;;;;;;357266;148;857190;-56
2021/08/12 00:27:05;;;;;;;4.58;3.45;;;;;;;;;;360305;148;864812;-56
2021/08/12 00:28:07;;;;;;;5.87;3.72;;;;;;;;;;356436;148;858134;-56
2021/08/12 00:29:08;;;;;;;6.05;3.52;;;;;;;;;;357410;148;857208;-56
2021/08/12 00:30:11;;;;;;;6.47;3.12;;;;;;;;;;356392;148;857282;-56
2021/08/12 00:31:13;;;;;;;5.48;3.38;;;;;;;;;;356310;148;864744;-56
2021/08/12 00:32:14;;;;;;;4.81;3.57;;;;;;;;;;357012;148;865713;-56
2021/08/12 00:33:16;;;;;;;4.44;3.16;;;;;;;;;;357854;148;860484;-56
2021/08/12 00:34:17;;;;;;;8.41;3.49;;;;;;;;;;356169;147;858145;-56
2021/08/12 00:35:19;;;;;;;4.64;3.15;;;;;;;;;;357557;148;857495;-56
2021/08/12 00:36:21;;;;;;;7.07;3.61;;;;;;;;;;357585;148;857260;-56
2021/08/12 00:37:23;;;;;;;6.11;3.42;;;;;;;;;;355788;148;857182;-56
2021/08/12 00:38:24;;;;;;;6.78;3.62;;;;;;;;;;359527;148;858182;-56
2021/08/12 00:39:26;;;;;;;7.07;3.49;;;;;;;;;;356805;148;859439;-56
2021/08/12 00:40:28;;;;;;;5.13;3.27;;;;;;;;;;355595;148;858952;-56
2021/08/12 00:41:35;;;;;;;3.94;2.95;;;;;;;;;;357887;149;857199;-57
2021/08/12 00:42:36;;;;;;;4.49;3.10;;;;;;;;;;354700;146;866269;-56
2021/08/12 00:43:40;;;;;;;4.86;3.21;;;;;;;;;;356909;148;857684;-56
2021/08/12 00:44:42;;;;;;;5.07;3.31;;;;;;;;;;357008;148;857198;-56
2021/08/12 00:45:43;;;;;;;8.74;3.41;;;;;;;;;;354470;148;865563;-56
2021/08/12 00:46:46;;;;;;;3.91;3.07;;;;;;;;;;356830;148;859170;-56
2021/08/12 00:47:47;;;;;;;5.61;3.46;;;;;;;;;;357998;148;859001;-56
2021/08/12 00:48:49;;;;;;;4.64;3.03;;;;;;;;;;358396;148;859043;-56
2021/08/12 00:49:50;;;;;;;7.46;3.33;;;;;;;;;;356857;148;858349;-56
2021/08/12 00:50:53;;;;;;;5.24;3.54;;;;;;;;;;355926;149;857743;-56
2021/08/12 00:51:55;;;;;;;5.29;3.36;;;;;;;;;;357765;148;857333;-56
2021/08/12 00:52:57;;;;;;;5.94;3.09;;;;;;;;;;358992;148;859075;-56
2021/08/12 00:53:58;;;;;;;4.54;3.19;;;;;;;;;;357306;148;859113;-56
2021/08/12 00:55:03;;;;;;;5.56;3.35;;;;;;;;;;354302;150;857514;-56
2021/08/12 00:56:07;;;;;;;4.26;2.99;;;;;;;;;;356323;149;857190;-56
2021/08/12 00:57:09;;;;;;;5.26;3.54;;;;;;;;;;358224;148;857205;-62
2021/08/12 00:58:14;;;;;;;5.41;3.48;;;;;;;;;;359045;148;857201;-57
2021/08/12 00:59:15;;;;;;;3.93;3.28;;;;;;;;;;360165;148;857381;-56
2021/08/12 01:00:18;;;;;;;4.15;3.33;;;;;;;;;;359019;148;867492;-56
2021/08/12 01:01:20;;;;;;;4.46;3.31;;;;;;;;;;355284;148;865722;-56
2021/08/12 01:02:21;;;;;;;6.24;3.51;;;;;;;;;;357497;148;864682;-56
2021/08/12 01:03:24;;;;;;;4.36;3.02;;;;;;;;;;359028;148;857267;-56
2021/08/12 01:04:25;;;;;;;6.40;3.27;;;;;;;;;;359468;146;857165;-56
2021/08/12 01:05:30;;;;;;;6.28;3.84;;;;;;;;;;358088;148;857380;-56
2021/08/12 01:06:32;;;;;;;5.86;3.10;;;;;;;;;;360785;148;857863;-56
2021/08/12 01:07:41;;;;;;;6.19;3.72;;;;;;;;;;361092;148;859064;-56
2021/08/12 01:08:48;;;;;;;4.73;3.17;;;;;;;;;;358820;148;857236;-56
2021/08/12 01:09:54;;;;;;;4.05;3.01;;;;;;;;;;355904;148;857398;-57
2021/08/12 01:10:59;;;;;;;5.61;3.27;;;;;;;;;;362461;148;857329;-56
2021/08/12 01:12:03;;;;;;;4.50;3.52;;;;;;;;;;357728;148;856946;-56
2021/08/12 01:13:06;;;;;;;4.46;3.02;;;;;;;;;;357879;148;857250;-56
2021/08/12 01:14:16;;;;;;;8.54;3.44;;;;;;;;;;361744;148;858655;-56
2021/08/12 01:15:22;;;;;;;4.88;3.19;;;;;;;;;;358536;148;857189;-56
2021/08/12 01:16:26;;;;;;;4.71;3.27;;;;;;;;;;349320;151;858182;-56
2021/08/12 01:17:33;;;;;;;3.57;2.94;;;;;;;;;;349713;151;857309;-56
2021/08/12 01:18:46;;;;;;;5.20;3.45;;;;;;;;;;355539;148;857325;-56
2021/08/12 01:20:08;;;;;;;5.36;3.46;;;;;;;;;;356523;148;857993;-55
2021/08/12 01:21:14;;;;;;;4.91;3.25;;;;;;;;;;356643;150;857151;-57
2021/08/12 01:22:17;;;;;;;8.54;3.70;;;;;;;;;;356407;148;857305;-56
2021/08/12 01:23:19;;;;;;;5.96;2.97;;;;;;;;;;356640;148;857260;-56
2021/08/12 01:24:20;;;;;;;4.34;3.12;;;;;;;;;;356400;148;858829;-56
2021/08/12 01:25:28;;;;;;;6.69;3.46;;;;;;;;;;356876;148;864740;-56
2021/08/12 01:26:31;;;;;;;3.65;2.90;;;;;;;;;;356386;148;858057;-56
2021/08/12 01:27:33;;;;;;;4.60;3.43;;;;;;;;;;355909;148;859895;-56
2021/08/12 01:28:36;;;;;;;4.48;3.24;;;;;;;;;;358644;148;857167;-56
2021/08/12 01:29:46;;;;;;;5.70;3.59;;;;;;;;;;357943;148;857278;-56
2021/08/12 01:31:07;;;;;;;6.77;3.55;;;;;;;;;;353312;148;865698;-56
2021/08/12 01:32:09;;;;;;;;;;;;;;;;;;357523;148;856657;-58
2021/08/12 01:33:15;;;;;;;4.81;3.00;;;;;;;;;;357681;148;857218;-57
2021/08/12 01:34:19;;;;;;;3.99;3.22;;;;;;;;;;357054;148;857142;-57
2021/08/12 01:35:20;;;;;;;4.01;3.14;;;;;;;;;;358526;148;857280;-57
2021/08/12 01:36:22;;;;;;;5.21;3.21;;;;;;;;;;355329;148;858245;-57
2021/08/12 01:37:25;;;;;;;5.91;3.24;;;;;;;;;;356453;149;857206;-57
2021/08/12 01:38:27;;;;;;;5.33;3.36;;;;;;;;;;358450;148;866571;-56
2021/08/12 01:39:29;;;;;;;3.96;3.41;;;;;;;;;;358362;148;864824;-58
2021/08/12 01:40:33;;;;;;;5.72;3.60;;;;;;;;;;358077;148;857190;-57
2021/08/12 01:41:35;;;;;;;4.73;3.46;;;;;;;;;;357184;148;860100;-57
2021/08/12 01:42:37;;;;;;;7.35;3.63;;;;;;;;;;361443;148;857248;-57
2021/08/12 01:43:39;;;;;;;5.86;3.23;;;;;;;;;;360090;148;858831;-57
2021/08/12 01:44:40;;;;;;;8.61;3.01;;;;;;;;;;356574;148;857790;-57
2021/08/12 01:45:47;;;;;;;7.85;3.54;;;;;;;;;;357691;148;857202;-57
2021/08/12 01:46:50;;;;;;;4.51;3.40;;;;;;;;;;355902;148;857306;-57
2021/08/12 01:47:52;;;;;;;6.96;3.47;;;;;;;;;;361199;148;857885;-57
2021/08/12 01:48:54;;;;;;;4.61;3.39;;;;;;;;;;357750;148;865030;-57
2021/08/12 01:49:55;;;;;;;4.41;3.52;;;;;;;;;;362277;148;857478;-57
2021/08/12 01:50:57;;;;;;;4.73;3.78;;;;;;;;;;357604;148;864976;-57
2021/08/12 01:51:59;;;;;;;5.28;3.42;;;;;;;;;;357505;148;859006;-57
2021/08/12 01:53:01;;;;;;;6.58;3.59;;;;;;;;;;356318;148;857498;-57
2021/08/12 01:54:02;;;;;;;4.91;3.74;;;;;;;;;;356795;150;860675;-57
2021/08/12 01:55:04;;;;;;;6.56;3.55;;;;;;;;;;357916;148;858724;-57
2021/08/12 01:56:07;;;;;;;5.48;3.58;;;;;;;;;;356842;148;866505;-57
2021/08/12 01:57:08;;;;;;;8.20;3.54;;;;;;;;;;357285;148;864804;-57
2021/08/12 01:58:10;;;;;;;6.69;3.49;;;;;;;;;;355784;150;857186;-57
2021/08/12 01:59:12;;;;;;;4.97;3.61;;;;;;;;;;358382;148;857166;-57
2021/08/12 02:00:15;;;;;;;5.24;3.39;;;;;;;;;;355780;148;857229;-57
2021/08/12 02:01:18;;;;;;;5.21;3.70;;;;;;;;;;356303;148;857285;-57
2021/08/12 02:02:19;;;;;;;4.86;3.54;;;;;;;;;;356454;148;864740;-57
2021/08/12 02:03:21;;;;;;;4.95;3.47;;;;;;;;;;354221;150;857287;-57
2021/08/12 02:04:23;;;;;;;4.07;3.09;;;;;;;;;;356154;149;857263;-57
2021/08/12 02:05:24;;;;;;;7.79;3.96;;;;;;;;;;355765;149;859259;-57
2021/08/12 02:06:29;;;;;;;4.90;3.60;;;;;;;;;;355380;150;859010;-56
2021/08/12 02:07:31;;;;;;;5.08;3.73;;;;;;;;;;355072;149;857334;-57
2021/08/12 02:08:33;;;;;;;4.61;3.48;;;;;;;;;;341700;155;857244;-56
2021/08/12 02:09:34;;;;;;;4.59;3.64;;;;;;;;;;346969;152;857347;-57
2021/08/12 02:10:38;;;;;;;4.84;3.29;;;;;;;;;;346241;152;857266;-57
2021/08/12 02:11:39;;;;;;;4.91;3.81;;;;;;;;;;348030;152;859520;-57
2021/08/12 02:12:41;;;;;;;7.16;3.61;;;;;;;;;;349431;152;864833;-57
2021/08/12 02:13:44;;;;;;;8.86;3.76;;;;;;;;;;347197;153;857783;-57
2021/08/12 02:14:45;;;;;;;4.24;3.67;;;;;;;;;;350163;152;865944;-57
2021/08/12 02:15:47;;;;;;;6.49;3.67;;;;;;;;;;346441;152;858998;-57
2021/08/12 02:16:49;;;;;;;4.81;3.64;;;;;;;;;;347316;152;860424;-57
2021/08/12 02:17:51;;;;;;;4.70;3.08;;;;;;;;;;346090;153;858501;-57
2021/08/12 02:18:52;;;;;;;4.91;3.43;;;;;;;;;;348093;152;857456;-57
2021/08/12 02:19:54;;;;;;;5.64;3.73;;;;;;;;;;351049;152;857354;-57
2021/08/12 02:20:59;;;;;;;6.60;3.41;;;;;;;;;;347480;152;859613;-57
2021/08/12 02:22:03;;;;;;;4.71;3.56;;;;;;;;;;344963;155;857305;-57
2021/08/12 02:23:14;;;;;;;4.86;3.42;;;;;;;;;;345718;155;864658;-57
2021/08/12 02:24:17;;;;;;;6.07;3.73;;;;;;;;;;347027;153;857264;-57
2021/08/12 02:25:24;;;;;;;5.66;3.78;;;;;;;;;;346784;152;857263;-56
2021/08/12 02:26:26;;;;;;;7.97;3.68;;;;;;;;;;347701;152;858968;-57
2021/08/12 02:27:28;;;;;;;6.61;3.69;;;;;;;;;;345414;152;857434;-57
2021/08/12 02:28:30;;;;;;;5.57;3.59;;;;;;;;;;347823;152;858306;-57
2021/08/12 02:29:34;;;;;;;5.05;3.49;;;;;;;;;;345276;154;858664;-57
2021/08/12 02:30:37;;;;;;;5.56;3.98;;;;;;;;;;342543;152;859094;-57
2021/08/12 02:31:39;;;;;;;8.39;3.60;;;;;;;;;;347773;152;857815;-57
2021/08/12 02:32:41;;;;;;;5.54;4.03;;;;;;;;;;344874;152;858163;-57
2021/08/12 02:33:43;;;;;;;5.84;3.66;;;;;;;;;;352211;152;866859;-57
2021/08/12 02:34:45;;;;;;;8.02;4.23;;;;;;;;;;348047;152;857723;-56
2021/08/12 02:35:46;;;;;;;12.44;4.01;;;;;;;;;;347207;152;857341;-55
2021/08/12 02:36:48;;;;;;;5.89;3.97;;;;;;;;;;353009;152;857249;-56
2021/08/12 02:37:50;;;;;;;7.86;4.26;;;;;;;;;;352033;152;857204;-57
2021/08/12 02:38:51;;;;;;;5.22;3.90;;;;;;;;;;347200;152;857364;-56
2021/08/12 02:39:53;;;;;;;7.76;4.27;;;;;;;;;;345323;153;857304;-56
2021/08/12 02:40:57;;;;;;;6.00;3.95;;;;;;;;;;346303;155;859068;-56
2021/08/12 02:41:59;;;;;;;6.73;4.18;;;;;;;;;;340927;155;857332;-55
2021/08/12 02:43:00;;;;;;;7.43;3.87;;;;;;;;;;340641;155;857356;-56
2021/08/12 02:44:02;;;;;;;5.36;3.68;;;;;;;;;;347575;152;857224;-56
2021/08/12 02:45:04;;;;;;;7.59;4.35;;;;;;;;;;350859;152;859003;-56
2021/08/12 02:46:06;;;;;;;6.92;4.28;;;;;;;;;;347018;152;864929;-56
2021/08/12 02:47:08;;;;;;;5.76;4.07;;;;;;;;;;347180;152;860299;-55
2021/08/12 02:48:09;;;;;;;6.14;4.30;;;;;;;;;;348103;152;857198;-57
2021/08/12 02:49:11;;;;;;;6.59;4.00;;;;;;;;;;347631;152;857232;-56
2021/08/12 02:50:14;;;;;;;6.71;4.26;;;;;;;;;;346542;152;858478;-56
2021/08/12 02:51:15;;;;;;;8.06;4.35;;;;;;;;;;345578;152;858984;-56
2021/08/12 02:52:17;;;;;;;4.86;3.98;;;;;;;;;;347542;152;857235;-56
2021/08/12 02:53:19;;;;;;;7.79;4.29;;;;;;;;;;347743;152;857282;-56
2021/08/12 02:54:20;;;;;;;6.87;4.04;;;;;;;;;;345912;152;864891;-56
2021/08/12 02:55:25;;;;;;;4.91;4.21;;;;;;;;;;350657;152;857241;-56
2021/08/12 02:56:26;;;;;;;7.99;4.24;;;;;;;;;;347025;152;857164;-55
2021/08/12 02:57:28;;;;;;;5.08;4.27;;;;;;;;;;346246;153;857215;-56
2021/08/12 02:58:32;;;;;;;6.13;4.07;;;;;;;;;;351928;152;857230;-57
2021/08/12 02:59:33;;;;;;;6.81;3.70;;;;;;;;;;346956;152;866830;-55
2021/08/12 03:00:37;;;;;;;5.57;4.23;;;;;;;;;;347439;152;857825;-56
2021/08/12 03:01:38;;;;;;;5.39;3.84;;;;;;;;;;346495;152;858385;-56
2021/08/12 03:02:41;;;;;;;6.49;4.39;;;;;;;;;;348172;153;864985;-56
2021/08/12 03:03:44;;;;;;;4.46;3.81;;;;;;;;;;343723;154;857280;-56
2021/08/12 03:04:45;;;;;;;9.15;4.10;;;;;;;;;;339817;153;858186;-56
2021/08/12 03:05:48;;;;;;;5.49;4.24;;;;;;;;;;336941;157;859043;-57
2021/08/12 03:06:52;;;;;;;8.38;4.34;;;;;;;;;;339889;154;860559;-56
2021/08/12 03:07:54;;;;;;;6.97;4.18;;;;;;;;;;335450;157;857298;-58
2021/08/12 03:08:55;;;;;;;6.22;4.04;;;;;;;;;;339108;157;857313;-60
2021/08/12 03:09:57;;;;;;;6.70;4.17;;;;;;;;;;337030;159;861319;-61
2021/08/12 03:10:59;;;;;;;5.70;3.68;;;;;;;;;;342422;153;857875;-60
2021/08/12 03:12:01;;;;;;;7.76;3.81;;;;;;;;;;332871;157;857964;-62
2021/08/12 03:13:02;;;;;;;7.41;4.23;;;;;;;;;;339251;157;857236;-60
2021/08/12 03:14:04;;;;;;;7.00;4.01;;;;;;;;;;339465;156;857703;-60
2021/08/12 03:15:06;;;;;;;4.64;3.83;;;;;;;;;;347397;151;864756;-60
2021/08/12 03:16:09;;;;;;;8.05;4.24;;;;;;;;;;341226;157;857918;-60
2021/08/12 03:17:11;;;;;;;4.96;3.86;;;;;;;;;;343168;154;857225;-60
2021/08/12 03:18:13;;;;;;;5.53;3.31;;;;;;;;;;350742;151;860708;-60
2021/08/12 03:19:16;;;;;;;5.49;3.77;;;;;;;;;;348656;151;860407;-61
2021/08/12 03:20:18;;;;;;;6.70;4.00;;;;;;;;;;346423;151;858107;-60
2021/08/12 03:21:20;;;;;;;7.65;4.20;;;;;;;;;;347639;151;857744;-61
2021/08/12 03:22:24;;;;;;;6.16;4.00;;;;;;;;;;349605;151;866556;-59
2021/08/12 03:23:25;;;;;;;4.26;3.39;;;;;;;;;;349059;154;858824;-60
2021/08/12 03:24:27;;;;;;;6.33;4.54;;;;;;;;;;349177;151;857595;-59
2021/08/12 03:25:28;;;;;;;7.47;4.46;;;;;;;18.22;100.00;151230.75;351039;151;857283;-60
2021/08/12 03:26:31;;;;;;;6.95;3.72;;;;;;;;;;348898;152;857352;-61
2021/08/12 03:27:33;;;;;;;5.16;3.16;;;;;;;;;;349159;154;857284;-60
2021/08/12 03:28:34;;;;;;;4.62;3.64;;;;;;;;;;349898;151;857173;-61
2021/08/12 03:29:36;;;;;;;6.47;3.44;;;;;;;;;;347268;151;864801;-61
2021/08/12 03:30:38;;;;;;;7.15;3.94;;;;;;;;;;350626;151;859083;-60
2021/08/12 03:31:39;;;;;;;7.01;4.21;;;;;;;;;;349226;151;857360;-60
2021/08/12 03:32:41;;;;;;;4.73;3.64;;;;;;;;;;350101;151;860255;-61
2021/08/12 03:33:42;;;;;;;4.61;3.90;;;;;;;;;;349131;151;859687;-60
2021/08/12 03:34:44;;;;;;;5.62;4.44;;;;;;;;;;347062;151;857344;-60
2021/08/12 03:35:46;;;;;;;8.13;4.09;;;;;;;;;;349344;151;857367;-61
2021/08/12 03:36:49;;;;;;;4.89;3.79;;;;;;;;;;348999;151;857724;-60
2021/08/12 03:37:50;;;;;;;6.32;4.02;;;;;;;;;;346329;151;857356;-61
2021/08/12 03:38:52;;;;;;;5.11;3.67;;;;;;;;;;345416;151;857928;-60
2021/08/12 03:39:53;;;;;;;6.49;4.32;;;;;;;;;;349598;151;857471;-60
2021/08/12 03:40:56;;;;;;;6.23;4.31;;;;;;;;;;347128;151;857366;-60
2021/08/12 03:41:58;;;;;;;5.86;4.09;;;;;;;;;;345976;151;857449;-60
2021/08/12 03:42:59;;;;;;;8.16;4.39;;;;;;;;;;349720;151;859125;-60
2021/08/12 03:44:01;;;;;;;9.29;3.90;;;;;;;;;;347688;151;856481;-61
2021/08/12 03:45:03;;;;;;;6.04;4.26;;;;;;;;;;348748;151;858550;-60
2021/08/12 03:46:05;;;;;;;7.13;4.05;;;;;;;;;;345608;154;857314;-61
2021/08/12 03:47:06;;;;;;;5.57;4.01;;;;;;;;;;349217;151;857231;-60
2021/08/12 03:48:08;;;;;;;7.77;3.86;;;;;;;;;;346453;152;857175;-59
2021/08/12 03:49:09;;;;;;;5.21;4.11;;;;;;;;;;347135;154;858874;-61
2021/08/12 03:50:11;;;;;;;4.59;4.07;;;;;;;;;;349671;154;858977;-61
2021/08/12 03:51:13;;;;;;;4.77;3.94;;;;;;;;;;349642;151;858905;-61
2021/08/12 03:52:14;;;;;;;4.55;4.06;;;;;;;;;;349133;153;859720;-60
2021/08/12 03:53:16;;;;;;;8.97;4.01;;;;;;;;;;348525;153;858006;-61
2021/08/12 03:54:17;;;;;;;6.62;4.27;;;;;;;;;;349110;151;857321;-61
2021/08/12 03:55:20;;;;;;;6.92;3.89;;;;;;;;;;348781;151;857332;-62
2021/08/12 03:56:23;;;;;;;6.54;4.46;;;;;;;;;;349521;151;857365;-59
2021/08/12 03:57:25;;;;;;;7.71;4.26;;;;;;;;;;348949;151;857256;-61
2021/08/12 03:58:27;;;;;;;4.81;3.88;;;;;;;;;;348408;151;866604;-61
2021/08/12 03:59:28;;;;;;;8.34;4.51;;;;;;;;;;346733;154;858998;-59
2021/08/12 04:00:32;;;;;;;4.76;3.54;;;;;;;;;;348399;151;859069;-60
2021/08/12 04:01:35;;;;;;;7.38;4.19;;;;;;;;;;347708;151;858908;-62
2021/08/12 04:02:36;;;;;;;7.66;3.80;;;;;;;;;;346931;152;858711;-61
2021/08/12 04:03:38;;;;;;;6.15;3.70;;;;;;;;;;355774;148;864788;-63
2021/08/12 04:04:40;;;;;;;7.21;3.86;;;;;;;;;;358694;148;857680;-62
2021/08/12 04:05:41;;;;;;;6.05;3.84;;;;;;;;;;356611;148;857428;-62
2021/08/12 04:06:43;;;;;;;8.71;4.14;;;;;;;;;;361246;148;865349;-62
2021/08/12 04:07:45;;;;;;;5.49;4.27;;;;;;;;;;355558;151;857378;-63
2021/08/12 04:08:46;;;;;;;4.58;3.75;;;;;;;;;;355907;148;857305;-62
2021/08/12 04:09:48;;;;;;;9.15;4.26;;;;;;;;;;355479;150;857243;-63
2021/08/12 04:10:52;;;;;;;5.16;4.08;;;;;;;;;;355723;150;859915;-61
2021/08/12 04:11:54;;;;;;;6.66;4.36;;;;;;;;;;356367;148;857490;-62
2021/08/12 04:12:55;;;;;;;5.01;3.81;;;;;;;;;;356592;149;857419;-61
2021/08/12 04:13:57;;;;;;;5.39;4.21;;;;;;;;;;355201;149;857858;-62
2021/08/12 04:14:58;;;;;;;6.64;4.24;;;;;;;;;;355564;148;857327;-62
2021/08/12 04:16:00;;;;;;;7.16;4.27;;;;;;;17.66;95.11;151239.84;356214;148;857393;-61
2021/08/12 04:17:02;;;;;;;6.73;3.67;;;;;;;;;;356736;148;858967;-64
2021/08/12 04:18:04;;;;;;;5.08;3.29;;;;;;;;;;353305;148;857716;-63
2021/08/12 04:19:06;;;;;;;7.03;3.77;;;;;;;17.64;94.92;40160.65;356267;148;857263;-63
2021/08/12 04:20:09;;;;;;;4.96;3.44;;;;;;;;;;356338;148;857274;-62
2021/08/12 04:21:11;;;;;;;4.30;3.15;;;;;;;;;;361958;148;858369;-61
2021/08/12 04:22:12;;;;;;;5.76;3.42;;;;;;;;;;358180;148;857215;-61
2021/08/12 04:23:14;;;;;;;5.51;3.56;;;;;;;;;;356880;148;859468;-62
2021/08/12 04:24:15;;;;;;;7.43;3.41;;;;;;;;;;356960;148;856366;-60
2021/08/12 04:25:17;;;;;;;6.31;3.58;;;;;;;;;;357639;148;857402;-63
2021/08/12 04:26:19;;;;;;;5.25;3.33;;;;;;;;;;355239;148;857851;-64
2021/08/12 04:27:20;;;;;;;6.19;3.59;;;;;;;;;;354621;148;859122;-61
2021/08/12 04:28:22;;;;;;;3.94;3.50;;;;;;;;;;358352;148;857566;-59
2021/08/12 04:29:24;;;;;;;6.68;3.76;;;;;;;;;;357044;148;857378;-59
2021/08/12 04:30:26;;;;;;;7.10;4.13;;;;;;;;;;356857;148;860248;-61
2021/08/12 04:31:28;;;;;;;5.49;3.81;;;;;;;;;;341636;154;858326;-60
2021/08/12 04:32:29;;;;;;;5.19;3.72;;;;;;;;;;336210;156;858165;-61
2021/08/12 04:33:31;;;;;;;5.68;3.89;;;;;;;;;;355752;148;860216;-60
2021/08/12 04:34:33;;;;;;;5.41;3.93;;;;;;;;;;355935;148;859009;-59
2021/08/12 04:35:34;;;;;;;6.10;3.86;;;;;;;;;;358152;148;857325;-61
2021/08/12 04:36:37;;;;;;;5.41;3.79;;;;;;;;;;357308;148;860804;-61
2021/08/12 04:37:43;;;;;;;4.42;3.62;;;;;;;;;;356597;148;858177;-61
2021/08/12 04:38:42;;;;;;;6.64;3.88;;;;;;;;;;355386;148;864881;-61
2021/08/12 04:39:44;;;;;;;7.49;4.00;;;;;;;;;;355892;148;858817;-60
2021/08/12 04:40:47;;;;;;;6.90;3.99;;;;;;;;;;356982;148;864778;-61
2021/08/12 04:41:48;;;;;;;7.44;4.15;;;;;;;;;;357547;148;865617;-61
2021/08/12 04:42:50;;;;;;;7.69;3.81;;;;;;;;;;358083;148;857239;-62
2021/08/12 04:43:51;;;;;;;5.39;3.63;;;;;;;;;;356019;148;857247;-61
2021/08/12 04:44:53;;;;;;;5.62;4.00;;;;;;;;;;354735;148;859229;-61
2021/08/12 04:45:54;;;;;;;5.37;3.96;;;;;;;;;;353310;149;858088;-61
2021/08/12 05:06:29;;;;;;;5.65;3.89;;;;;;;18.16;61.32;99879.58;403262;130;868631;-61
2021/08/12 05:07:31;;;;;;;4.18;3.34;;;;;;;18.24;61.23;99874.00;394147;133;857129;-61
2021/08/12 05:08:34;;;;;;;4.23;3.09;;;;;;;18.37;60.72;99875.20;392761;135;865552;-60
2021/08/12 05:09:37;;;;;;;6.54;3.76;;;;;;;18.53;60.31;99871.94;384146;136;865061;-61
2021/08/12 05:10:39;;;;;;;5.42;3.71;;;;;;;18.67;59.80;99871.36;385147;135;857188;-62
2021/08/12 05:11:41;;;;;;;5.43;3.41;;;;;;;18.80;59.52;99879.56;393595;135;858875;-61
2021/08/12 05:12:43;;;;;;;4.86;3.19;;;;;;;18.90;58.94;99880.00;392173;135;865426;-61
2021/08/12 05:13:46;;;;;;;5.34;3.46;;;;;;;19.00;58.27;99880.49;394448;133;857198;-61
2021/08/12 05:14:48;;;;;;;5.13;3.37;;;;;;;18.96;58.62;99877.11;395237;133;864729;-62
2021/08/12 05:15:50;;;;;;;4.82;3.44;;;;;;;18.76;59.17;99870.13;395258;136;864774;-62
2021/08/12 05:16:53;;;;;;;5.06;3.46;;;;;;;18.81;59.04;99876.02;394508;133;865921;-62
2021/08/12 05:17:55;;;;;;;5.76;3.77;;;;;;;18.79;59.26;99878.70;393675;133;857362;-62
2021/08/12 05:18:57;;;;;;;4.39;3.08;;;;;;;18.86;59.05;99878.42;395445;136;864846;-61
2021/08/12 05:19:59;;;;;;;4.62;3.29;;;;;;;18.89;58.84;99878.30;395463;136;857301;-61
2021/08/12 05:21:01;;;;;;;4.75;3.66;;;;;;;18.96;58.44;99877.11;394283;134;858006;-62
2021/08/12 05:22:04;;;;;;;5.87;3.57;;;;;;;19.01;57.99;99872.54;393893;134;859036;-62
2021/08/12 05:23:05;;;;;;;6.70;3.57;;;;;;;18.94;58.24;99873.70;392545;135;857112;-62
2021/08/12 05:24:07;;;;;;;4.39;3.29;;;;;;;19.08;58.09;99868.72;395706;134;859831;-62
2021/08/12 05:25:09;;;;;;;4.79;3.25;;;;;;;19.19;57.53;99875.28;392474;134;859025;-61
2021/08/12 05:26:13;;;;;;;4.03;3.04;;;;;;;19.25;57.55;99881.09;392444;136;865871;-61
2021/08/12 05:27:14;;;;;;;4.59;3.26;;;;;;;19.31;57.02;99869.48;397203;133;867635;-61
2021/08/12 05:28:16;;;;;;;5.13;3.48;;;;;;;19.38;56.56;99865.66;393701;133;864820;-61
2021/08/12 05:29:18;;;;;;;5.12;3.24;;;;;;;19.41;56.76;99872.52;392131;133;860282;-60
2021/08/12 05:30:20;;;;;;;4.34;3.13;;;;;;;19.18;56.83;99873.59;391679;137;865364;-62
2021/08/12 05:31:22;;;;;;;7.49;3.38;;;;;;;19.12;57.26;99872.08;391725;133;859145;-60
2021/08/12 05:32:24;;;;;;;3.65;2.99;;;;;;;19.12;57.32;99866.83;390889;135;866505;-62
2021/08/12 05:33:26;;;;;;;5.14;3.16;;;;;;;19.06;56.41;99861.85;390900;135;858972;-62
2021/08/12 05:34:28;;;;;;;4.69;2.89;;;;;;;19.06;56.41;99861.85;392806;133;864811;-61
2021/08/12 05:35:30;;;;;;;3.38;2.91;;;;;;;19.00;57.58;99862.96;392405;133;864871;-61
2021/08/12 05:36:32;;;;;;;4.58;2.76;;;;;;;19.08;57.79;99862.64;395675;133;866446;-62
2021/08/12 05:37:34;;;;;;;6.63;3.18;;;;;;;19.08;56.70;99860.84;395366;136;857238;-61
2021/08/12 05:38:35;;;;;;;4.92;2.66;;;;;;;18.98;57.30;99885.79;394583;134;865542;-62
2021/08/12 05:39:37;;;;;;;4.43;2.56;;;;;;;18.98;57.30;99885.79;395640;133;864787;-61
2021/08/12 05:40:41;;;;;;;4.24;2.56;;;;;;;19.13;56.23;151230.28;394421;136;866000;-61
2021/08/12 05:41:42;;;;;;;5.89;3.06;;;;;;;;;;394637;134;857249;-61
2021/08/12 05:42:44;;;;;;;4.75;2.89;;;;;;;;;;391924;132;864844;-61
2021/08/12 05:43:46;;;;;;;5.21;2.30;;;;;;;;;;394471;133;857199;-60
2021/08/12 05:44:47;;;;;;;4.40;2.58;;;;;;;;;;395286;136;857223;-61
2021/08/12 05:45:49;;;;;;;3.74;2.70;;;;;;;;;;394613;134;864753;-59
2021/08/12 05:46:52;;;;;;;4.26;2.90;;;;;;;;;;393029;133;857224;-61
2021/08/12 05:47:53;;;;;;;5.56;3.17;;;;;;;;;;393374;135;857367;-60
2021/08/12 05:48:55;;;;;;;3.79;2.65;;;;;;;;;;394493;135;857305;-61
2021/08/12 05:49:56;;;;;;;3.86;2.65;;;;;;;;;;391214;134;857187;-60
2021/08/12 05:50:59;;;;;;;7.53;2.77;;;;;;;;;;393061;133;856575;-61
2021/08/12 05:52:00;;;;;;;4.81;2.30;;;;;;;;;;393679;135;857257;-60
2021/08/12 05:53:02;;;;;;;4.62;2.34;;;;;;;;;;395490;134;857238;-60
2021/08/12 05:54:04;;;;;;;3.19;2.23;;;;;;;;;;391614;133;857278;-60
2021/08/12 05:55:06;;;;;;;5.63;2.47;;;;;;;;;;393628;137;858108;-60
2021/08/12 05:56:08;;;;;;;3.53;2.53;;;;;;;;;;393852;134;857392;-61
2021/08/12 05:57:09;;;;;;;3.33;2.64;;;;;;;;;;393993;134;858519;-61
2021/08/12 05:58:11;;;;;;;4.44;2.54;;;;;;;;;;396139;133;857210;-61
2021/08/12 05:59:12;;;;;;;2.88;2.27;;;;;;;;;;394864;135;857192;-61
2021/08/12 06:00:15;;;;;;;3.89;2.47;;;;;;;;;;394724;134;857203;-61
2021/08/12 06:01:16;;;;;;;3.78;2.57;;;;;;;;;;393409;133;857257;-60
2021/08/12 06:02:18;;;;;;;6.55;2.59;;;;;;;;;;395873;134;857231;-59
2021/08/12 06:03:21;;;;;;;5.26;2.65;;;;;;;;;;393071;133;857230;-62
2021/08/12 06:04:23;;;;;;;2.91;2.36;;;;;;;;;;392012;133;857438;-60
2021/08/12 06:05:25;;;;;;;4.13;2.64;;;;;;;;;;392332;133;857292;-63
2021/08/12 06:06:26;;;;;;;4.17;2.57;;;;;;;;;;391752;133;858685;-62
2021/08/12 06:07:28;;;;;;;3.36;2.29;;;;;;;;;;379464;139;858235;-60
2021/08/12 06:08:30;;;;;;;5.74;2.41;;;;;;;;;;381324;137;857243;-66
2021/08/12 06:09:31;;;;;;;4.36;2.39;;;;;;;;;;378936;138;857331;-62
2021/08/12 06:10:34;;;;;;;3.54;2.63;;;;;;;;;;392061;132;858873;-61
2021/08/12 06:11:36;;;;;;;4.42;2.65;;;;;;;;;;392430;133;857221;-59
2021/08/12 06:12:37;;;;;;;4.44;2.68;;;;;;;;;;393373;133;857264;-60
2021/08/12 06:13:39;;;;;;;6.29;2.96;;;;;;;;;;394505;133;857083;-58
2021/08/12 06:14:40;;;;;;;4.15;2.38;;;;;;;;;;392598;134;858788;-59
2021/08/12 06:15:42;;;;;;;3.51;2.20;;;;;;;;;;393457;133;865947;-58
2021/08/12 06:16:44;;;;;;;3.43;2.37;;;;;;;;;;392635;135;857928;-58
2021/08/12 06:17:46;;;;;;;4.05;2.24;;;;;;;;;;389557;135;859264;-58